Time,TemperatureF,DewpointF,PressureIn,WindDirection,WindDirectionDegrees,WindSpeedMPH,WindSpeedGustMPH,Humidity,HourlyPrecipIn,Conditions,Clouds,dailyrainin,SoftwareType,DateUTC
2013-02-17 00:00:00,10.9,6.8,30.07,WNW,286,0.0,0.0,83,0.00,,---,0.00,VWS V14.00,2013-02-17 05:00:00,
2013-02-17 00:07:00,10.7,6.6,30.07,WNW,286,0.0,0.0,83,0.00,,---,0.00,VWS V14.00,2013-02-17 05:07:00,
2013-02-17 00:15:00,10.5,6.6,30.07,WNW,286,0.0,0.0,84,0.00,,---,0.00,VWS V14.00,2013-02-17 05:15:00,
2013-02-17 00:23:00,10.3,6.4,30.07,WNW,286,0.0,0.0,84,0.00,,---,0.00,VWS V14.00,2013-02-17 05:23:00,
2013-02-17 00:30:00,10.2,6.3,30.07,WNW,286,0.0,0.0,84,0.00,,---,0.00,VWS V14.00,2013-02-17 05:30:00,
2013-02-17 00:39:00,10.0,6.1,30.07,WNW,286,0.0,0.0,84,0.00,,---,0.00,VWS V14.00,2013-02-17 05:39:00,
2013-02-17 00:47:00,9.9,6.0,30.07,WNW,286,0.0,0.0,84,0.00,,---,0.00,VWS V14.00,2013-02-17 05:47:00,
2013-02-17 00:55:00,10.2,6.8,30.07,WNW,286,0.0,0.0,86,0.00,,---,0.00,VWS V14.00,2013-02-17 05:55:00,
2013-02-17 01:00:00,10.4,6.8,30.07,WNW,286,0.0,0.0,85,0.00,,---,0.00,VWS V14.00,2013-02-17 06:00:00,
2013-02-17 01:11:00,10.5,6.9,30.07,WNW,286,0.0,0.0,85,0.00,,---,0.00,VWS V14.00,2013-02-17 06:11:00,
2013-02-17 01:19:00,10.4,6.8,30.07,WNW,286,0.0,0.0,85,0.00,,---,0.00,VWS V14.00,2013-02-17 06:19:00,
2013-02-17 01:27:00,10.2,6.6,30.07,WNW,286,0.0,0.0,85,0.00,,---,0.00,VWS V14.00,2013-02-17 06:27:00,
2013-02-17 01:35:00,10.0,6.4,30.07,WNW,286,0.0,0.0,85,0.00,,---,0.00,VWS V14.00,2013-02-17 06:35:00,
2013-02-17 01:43:00,9.8,6.2,30.07,WNW,286,0.0,0.0,85,0.00,,---,0.00,VWS V14.00,2013-02-17 06:43:00,
2013-02-17 01:51:00,10.1,6.8,30.07,WNW,286,1.0,2.0,86,0.00,,---,0.00,VWS V14.00,2013-02-17 06:51:00,
2013-02-17 01:59:00,11.1,7.7,30.07,WNW,286,1.0,2.0,86,0.00,,---,0.00,VWS V14.00,2013-02-17 06:59:00,
2013-02-17 02:07:00,11.8,8.2,30.07,WNW,286,0.0,1.0,85,0.00,,---,0.00,VWS V14.00,2013-02-17 07:07:00,
2013-02-17 02:15:00,12.2,8.3,30.07,WNW,286,0.0,1.0,84,0.00,,---,0.00,VWS V14.00,2013-02-17 07:15:00,
2013-02-17 02:23:00,12.3,8.4,30.07,WNW,286,1.0,1.0,84,0.00,,---,0.00,VWS V14.00,2013-02-17 07:23:00,
2013-02-17 02:30:00,12.4,8.5,30.07,WNW,286,1.0,2.0,84,0.00,,---,0.00,VWS V14.00,2013-02-17 07:30:00,
2013-02-17 02:39:00,12.5,8.9,30.07,WNW,286,0.0,2.0,85,0.00,,---,0.00,VWS V14.00,2013-02-17 07:39:00,
2013-02-17 02:47:00,12.4,8.5,30.07,WNW,286,0.0,2.0,84,0.00,,---,0.00,VWS V14.00,2013-02-17 07:47:00,
2013-02-17 02:55:00,12.3,8.7,30.07,WNW,286,0.0,2.0,85,0.00,,---,0.00,VWS V14.00,2013-02-17 07:55:00,
2013-02-17 03:00:00,12.3,8.7,30.07,WNW,286,0.0,2.0,85,0.00,,---,0.00,VWS V14.00,2013-02-17 08:00:00,
2013-02-17 03:11:00,12.5,8.9,30.07,WNW,286,1.0,2.0,85,0.00,,---,0.00,VWS V14.00,2013-02-17 08:11:00,
2013-02-17 03:19:00,12.6,9.2,30.07,WNW,286,2.0,3.0,86,0.00,,---,0.00,VWS V14.00,2013-02-17 08:19:00,
2013-02-17 03:27:00,13.1,10.0,30.07,WNW,291,1.0,4.0,87,0.00,,---,0.00,VWS V14.00,2013-02-17 08:27:00,
2013-02-17 03:35:00,13.6,10.5,30.07,WNW,294,1.0,5.0,87,0.00,,---,0.00,VWS V14.00,2013-02-17 08:35:00,
2013-02-17 03:43:00,13.8,10.6,30.07,WNW,299,2.0,5.0,87,0.00,,---,0.00,VWS V14.00,2013-02-17 08:43:00,
2013-02-17 03:51:00,13.9,10.8,30.07,WNW,299,0.0,5.0,87,0.00,,---,0.00,VWS V14.00,2013-02-17 08:51:00,
2013-02-17 03:59:00,13.8,10.6,30.07,WNW,299,1.0,5.0,87,0.00,,---,0.00,VWS V14.00,2013-02-17 08:59:00,
2013-02-17 04:07:00,13.9,10.8,30.07,WNW,298,5.0,5.0,87,0.00,,---,0.00,VWS V14.00,2013-02-17 09:07:00,
2013-02-17 04:15:00,13.8,10.6,30.07,WNW,298,1.0,5.0,87,0.00,,---,0.00,VWS V14.00,2013-02-17 09:15:00,
2013-02-17 04:23:00,13.8,10.6,30.08,WNW,298,0.0,5.0,87,0.00,,---,0.00,VWS V14.00,2013-02-17 09:23:00,
2013-02-17 04:30:00,13.7,10.6,30.08,WNW,298,0.0,5.0,87,0.00,,---,0.00,VWS V14.00,2013-02-17 09:30:00,
2013-02-17 04:39:00,13.6,10.5,30.08,WNW,298,0.0,3.0,87,0.00,,---,0.00,VWS V14.00,2013-02-17 09:39:00,
2013-02-17 04:47:00,13.7,10.6,30.08,WNW,298,2.0,4.0,87,0.00,,---,0.00,VWS V14.00,2013-02-17 09:47:00,
2013-02-17 04:55:00,14.0,11.1,30.08,NNW,329,1.0,5.0,88,0.00,,---,0.00,VWS V14.00,2013-02-17 09:55:00,
2013-02-17 05:00:00,14.1,11.2,30.08,WNW,300,2.0,5.0,88,0.00,,---,0.00,VWS V14.00,2013-02-17 10:00:00,
2013-02-17 05:11:00,14.3,11.1,30.08,WNW,300,2.0,5.0,87,0.00,,---,0.00,VWS V14.00,2013-02-17 10:11:00,
2013-02-17 05:19:00,14.2,11.1,30.08,WNW,300,2.0,5.0,87,0.00,,---,0.00,VWS V14.00,2013-02-17 10:19:00,
2013-02-17 05:27:00,14.0,10.9,30.09,WNW,302,3.0,5.0,87,0.00,,---,0.00,VWS V14.00,2013-02-17 10:27:00,
2013-02-17 05:35:00,13.9,10.8,30.09,WNW,302,1.0,3.0,87,0.00,,---,0.00,VWS V14.00,2013-02-17 10:35:00,
2013-02-17 05:43:00,13.9,10.8,30.09,NNW,333,2.0,4.0,87,0.00,,---,0.00,VWS V14.00,2013-02-17 10:43:00,
2013-02-17 05:51:00,14.0,11.1,30.09,NW,317,0.0,4.0,88,0.00,,---,0.00,VWS V14.00,2013-02-17 10:51:00,
2013-02-17 05:59:00,14.3,11.4,30.09,NW,317,2.0,4.0,88,0.00,,---,0.00,VWS V14.00,2013-02-17 10:59:00,
2013-02-17 06:07:00,14.8,11.9,30.09,NW,307,4.0,6.0,88,0.00,,---,0.00,VWS V14.00,2013-02-17 11:07:00,
2013-02-17 06:15:00,15.0,12.1,30.09,WNW,300,2.0,6.0,88,0.00,,---,0.00,VWS V14.00,2013-02-17 11:15:00,
2013-02-17 06:23:00,15.2,12.3,30.10,NE,42,2.0,6.0,88,0.00,,---,0.00,VWS V14.00,2013-02-17 11:23:00,
2013-02-17 06:30:00,15.3,12.4,30.10,NNW,337,1.0,6.0,88,0.00,,---,0.00,VWS V14.00,2013-02-17 11:30:00,
2013-02-17 06:39:00,15.5,12.6,30.10,NW,309,0.0,4.0,88,0.00,,---,0.00,VWS V14.00,2013-02-17 11:39:00,
2013-02-17 06:47:00,15.7,12.5,30.11,NW,309,1.0,4.0,87,0.00,,---,0.00,VWS V14.00,2013-02-17 11:47:00,
2013-02-17 06:55:00,15.6,12.4,30.11,NNE,17,1.0,7.0,87,0.00,,---,0.00,VWS V14.00,2013-02-17 11:55:00,
2013-02-17 07:03:00,15.3,12.1,30.11,NE,34,0.0,7.0,87,0.00,,---,0.00,VWS V14.00,2013-02-17 12:03:00,
2013-02-17 07:11:00,15.1,11.9,30.11,NNE,15,3.0,7.0,87,0.00,,---,0.00,VWS V14.00,2013-02-17 12:11:00,
2013-02-17 07:19:00,14.9,11.7,30.11,NW,313,3.0,7.0,87,0.00,,---,0.00,VWS V14.00,2013-02-17 12:19:00,
2013-02-17 07:27:00,14.7,11.5,30.12,North,355,2.0,7.0,87,0.00,,---,0.00,VWS V14.00,2013-02-17 12:27:00,
2013-02-17 07:35:00,14.6,11.4,30.12,NE,49,1.0,6.0,87,0.00,,---,0.00,VWS V14.00,2013-02-17 12:35:00,
2013-02-17 07:43:00,14.6,11.2,30.13,NNE,25,3.0,6.0,86,0.00,,---,0.00,VWS V14.00,2013-02-17 12:43:00,
2013-02-17 07:51:00,14.6,11.2,30.13,NW,319,2.0,6.0,86,0.00,,---,0.00,VWS V14.00,2013-02-17 12:51:00,
2013-02-17 07:59:00,14.5,11.1,30.13,North,360,1.0,7.0,86,0.00,,---,0.00,VWS V14.00,2013-02-17 12:59:00,
2013-02-17 08:07:00,14.6,11.2,30.13,North,5,1.0,6.0,86,0.00,,---,0.00,VWS V14.00,2013-02-17 13:07:00,
2013-02-17 08:15:00,14.7,11.0,30.13,NNW,334,4.0,6.0,85,0.00,,---,0.00,VWS V14.00,2013-02-17 13:15:00,
2013-02-17 08:24:00,14.8,11.1,30.14,North,351,3.0,6.0,85,0.00,,---,0.00,VWS V14.00,2013-02-17 13:24:00,
2013-02-17 08:30:00,14.8,11.1,30.14,NNE,19,2.0,9.0,85,0.00,,---,0.00,VWS V14.00,2013-02-17 13:30:00,
2013-02-17 08:40:00,15.2,11.2,30.14,WNW,302,0.0,7.0,84,0.00,,---,0.00,VWS V14.00,2013-02-17 13:40:00,
2013-02-17 08:48:00,15.6,11.6,30.14,NW,307,2.0,7.0,84,0.00,,---,0.00,VWS V14.00,2013-02-17 13:48:00,
2013-02-17 08:56:00,16.0,12.0,30.14,NW,313,2.0,7.0,84,0.00,,---,0.00,VWS V14.00,2013-02-17 13:56:00,
2013-02-17 09:04:00,16.1,11.9,30.15,North,355,2.0,6.0,83,0.00,,---,0.00,VWS V14.00,2013-02-17 14:04:00,
2013-02-17 09:12:00,15.1,10.3,30.15,NW,307,4.0,9.0,81,0.00,,---,0.00,VWS V14.00,2013-02-17 14:12:00,
2013-02-17 09:20:00,14.8,9.8,30.15,NW,325,3.0,9.0,80,0.00,,---,0.00,VWS V14.00,2013-02-17 14:20:00,
2013-02-17 09:28:00,15.3,10.2,30.15,NW,307,2.0,9.0,80,0.00,,---,0.00,VWS V14.00,2013-02-17 14:28:00,
2013-02-17 09:36:00,16.0,11.5,30.15,WNW,300,4.0,6.0,82,0.00,,---,0.00,VWS V14.00,2013-02-17 14:36:00,
2013-02-17 09:44:00,15.8,10.7,30.16,NW,309,4.0,11.0,80,0.00,,---,0.00,VWS V14.00,2013-02-17 14:44:00,
2013-02-17 09:52:00,15.2,10.1,30.16,NW,326,3.0,11.0,80,0.00,,---,0.00,VWS V14.00,2013-02-17 14:52:00,
2013-02-17 10:00:00,15.0,10.0,30.17,WNW,299,1.0,11.0,80,0.00,,---,0.00,VWS V14.00,2013-02-17 15:00:00,
2013-02-17 10:08:00,15.5,11.0,30.17,NW,324,3.0,6.0,82,0.00,,---,0.00,VWS V14.00,2013-02-17 15:08:00,
2013-02-17 10:16:00,15.1,10.9,30.17,NW,315,4.0,9.0,83,0.00,,---,0.00,VWS V14.00,2013-02-17 15:16:00,
2013-02-17 10:24:00,15.0,10.8,30.17,NW,309,3.0,9.0,83,0.00,,---,0.00,VWS V14.00,2013-02-17 15:24:00,
2013-02-17 10:30:00,15.4,10.9,30.18,North,351,3.0,9.0,82,0.00,,---,0.00,VWS V14.00,2013-02-17 15:30:00,
2013-02-17 10:40:00,15.6,10.3,30.18,WNW,287,7.0,9.0,79,0.00,,---,0.00,VWS V14.00,2013-02-17 15:40:00,
2013-02-17 10:48:00,15.0,9.4,30.18,NW,313,7.0,13.0,78,0.00,,---,0.00,VWS V14.00,2013-02-17 15:48:00,
2013-02-17 10:56:00,15.1,9.2,30.18,NW,315,2.0,13.0,77,0.00,,---,0.00,VWS V14.00,2013-02-17 15:56:00,
2013-02-17 11:04:00,15.0,9.4,30.19,NNW,340,1.0,9.0,78,0.00,,---,0.00,VWS V14.00,2013-02-17 16:04:00,
2013-02-17 11:12:00,15.2,9.6,30.19,WNW,284,1.0,9.0,78,0.00,,---,0.00,VWS V14.00,2013-02-17 16:12:00,
2013-02-17 11:20:00,15.1,9.8,30.19,NW,314,9.0,10.0,79,0.00,,---,0.00,VWS V14.00,2013-02-17 16:20:00,
2013-02-17 11:28:00,14.6,9.6,30.19,North,355,4.0,10.0,80,0.00,,---,0.00,VWS V14.00,2013-02-17 16:28:00,
2013-02-17 11:36:00,14.4,9.4,30.20,NW,324,5.0,10.0,80,0.00,,---,0.00,VWS V14.00,2013-02-17 16:36:00,
2013-02-17 11:44:00,14.7,9.7,30.20,WNW,298,5.0,11.0,80,0.00,,---,0.00,VWS V14.00,2013-02-17 16:44:00,
2013-02-17 11:52:00,14.8,9.8,30.20,NW,306,7.0,11.0,80,0.00,,---,0.00,VWS V14.00,2013-02-17 16:52:00,
2013-02-17 12:00:00,14.1,8.8,30.20,WNW,300,7.0,16.0,79,0.00,,---,0.00,VWS V14.00,2013-02-17 17:00:00,
2013-02-17 12:08:00,14.3,9.0,30.20,NW,309,6.0,11.0,79,0.00,,---,0.00,VWS V14.00,2013-02-17 17:08:00,
2013-02-17 12:16:00,14.1,8.5,30.20,NW,313,4.0,13.0,78,0.00,,---,0.00,VWS V14.00,2013-02-17 17:16:00,
2013-02-17 12:24:00,13.9,8.6,30.20,WNW,303,6.0,16.0,79,0.00,,---,0.00,VWS V14.00,2013-02-17 17:24:00,
2013-02-17 12:30:00,14.1,8.8,30.20,NW,307,2.0,16.0,79,0.00,,---,0.00,VWS V14.00,2013-02-17 17:30:00,
2013-02-17 12:40:00,14.1,8.2,30.20,NNW,327,6.0,15.0,77,0.00,,---,0.00,VWS V14.00,2013-02-17 17:40:00,
2013-02-17 12:48:00,13.9,8.3,30.20,WNW,293,10.0,17.0,78,0.00,,---,0.00,VWS V14.00,2013-02-17 17:48:00,
2013-02-17 12:56:00,14.1,8.2,30.20,WNW,286,3.0,17.0,77,0.00,,---,0.00,VWS V14.00,2013-02-17 17:56:00,
2013-02-17 13:04:00,14.1,8.2,30.20,NW,316,6.0,12.0,77,0.00,,---,0.00,VWS V14.00,2013-02-17 18:04:00,
2013-02-17 13:12:00,14.5,8.0,30.20,NW,318,11.0,16.0,75,0.00,,---,0.00,VWS V14.00,2013-02-17 18:12:00,
2013-02-17 13:20:00,14.4,7.0,30.20,NW,311,10.0,20.0,72,0.00,,---,0.00,VWS V14.00,2013-02-17 18:20:00,
2013-02-17 13:28:00,14.8,7.4,30.20,NW,306,6.0,20.0,72,0.00,,---,0.00,VWS V14.00,2013-02-17 18:28:00,
2013-02-17 13:36:00,14.5,6.8,30.21,WNW,285,9.0,16.0,71,0.00,,---,0.00,VWS V14.00,2013-02-17 18:36:00,
2013-02-17 13:44:00,14.7,7.0,30.21,WNW,302,10.0,16.0,71,0.00,,---,0.00,VWS V14.00,2013-02-17 18:44:00,
2013-02-17 13:52:00,14.6,6.9,30.21,NW,319,8.0,16.0,71,0.00,,---,0.00,VWS V14.00,2013-02-17 18:52:00,
2013-02-17 14:00:00,14.8,7.1,30.21,WNW,298,10.0,16.0,71,0.00,,---,0.00,VWS V14.00,2013-02-17 19:00:00,
2013-02-17 14:08:00,14.7,7.0,30.21,West,279,11.0,14.0,71,0.00,,---,0.00,VWS V14.00,2013-02-17 19:08:00,
2013-02-17 14:16:00,14.4,7.0,30.21,NW,309,10.0,19.0,72,0.00,,---,0.00,VWS V14.00,2013-02-17 19:16:00,
2013-02-17 14:24:00,14.6,7.5,30.21,WNW,295,10.0,19.0,73,0.00,,---,0.00,VWS V14.00,2013-02-17 19:24:00,
2013-02-17 14:30:00,14.4,7.9,30.21,WNW,299,6.0,19.0,75,0.00,,---,0.00,VWS V14.00,2013-02-17 19:30:00,
2013-02-17 14:40:00,14.1,7.9,30.22,NW,304,9.0,17.0,76,0.00,,---,0.00,VWS V14.00,2013-02-17 19:40:00,
2013-02-17 14:49:00,14.3,7.8,30.21,NW,312,8.0,17.0,75,0.00,,---,0.00,VWS V14.00,2013-02-17 19:49:00,
2013-02-17 14:57:00,14.4,7.9,30.21,WNW,289,12.0,17.0,75,0.00,,---,0.00,VWS V14.00,2013-02-17 19:57:00,
2013-02-17 15:05:00,14.2,8.3,30.22,NNW,332,4.0,14.0,77,0.00,,---,0.00,VWS V14.00,2013-02-17 20:05:00,
2013-02-17 15:13:00,14.0,8.7,30.22,NW,315,6.0,14.0,79,0.00,,---,0.00,VWS V14.00,2013-02-17 20:13:00,
2013-02-17 15:21:00,14.4,8.5,30.22,NW,311,3.0,14.0,77,0.00,,---,0.00,VWS V14.00,2013-02-17 20:21:00,
2013-02-17 15:29:00,14.5,8.3,30.22,WNW,296,5.0,14.0,76,0.00,,---,0.00,VWS V14.00,2013-02-17 20:29:00,
2013-02-17 15:37:00,14.3,7.8,30.23,WNW,296,7.0,14.0,75,0.00,,---,0.00,VWS V14.00,2013-02-17 20:37:00,
2013-02-17 15:45:00,14.2,8.0,30.23,NW,319,5.0,16.0,76,0.00,,---,0.00,VWS V14.00,2013-02-17 20:45:00,
2013-02-17 15:53:00,14.3,9.0,30.23,NNW,328,2.0,16.0,79,0.00,,---,0.00,VWS V14.00,2013-02-17 20:53:00,
2013-02-17 16:00:00,14.8,7.1,30.23,NW,315,7.0,16.0,71,0.00,,---,0.00,VWS V14.00,2013-02-17 21:00:00,
2013-02-17 16:09:00,14.5,7.1,30.23,WNW,296,9.0,14.0,72,0.00,,---,0.00,VWS V14.00,2013-02-17 21:09:00,
2013-02-17 16:17:00,14.1,7.3,30.23,NW,316,7.0,14.0,74,0.00,,---,0.00,VWS V14.00,2013-02-17 21:17:00,
2013-02-17 16:25:00,14.2,7.4,30.23,NW,319,6.0,16.0,74,0.00,,---,0.00,VWS V14.00,2013-02-17 21:25:00,
2013-02-17 16:30:00,14.2,7.4,30.23,NW,325,2.0,16.0,74,0.00,,---,0.00,VWS V14.00,2013-02-17 21:30:00,
2013-02-17 16:41:00,14.3,7.2,30.24,NW,321,7.0,12.0,73,0.00,,---,0.00,VWS V14.00,2013-02-17 21:41:00,
2013-02-17 16:49:00,14.5,7.1,30.24,NW,306,10.0,15.0,72,0.00,,---,0.00,VWS V14.00,2013-02-17 21:49:00,
2013-02-17 16:57:00,14.4,7.0,30.24,NW,315,7.0,15.0,72,0.00,,---,0.00,VWS V14.00,2013-02-17 21:57:00,
2013-02-17 17:05:00,14.5,6.8,30.25,WNW,294,6.0,12.0,71,0.00,,---,0.00,VWS V14.00,2013-02-17 22:05:00,
2013-02-17 17:13:00,14.4,7.0,30.25,WNW,290,8.0,12.0,72,0.00,,---,0.00,VWS V14.00,2013-02-17 22:13:00,
2013-02-17 17:21:00,14.2,8.3,30.25,WNW,301,5.0,15.0,77,0.00,,---,0.00,VWS V14.00,2013-02-17 22:21:00,
2013-02-17 17:29:00,13.9,8.6,30.25,NW,312,6.0,15.0,79,0.00,,---,0.00,VWS V14.00,2013-02-17 22:29:00,
2013-02-17 17:37:00,14.0,8.4,30.25,WNW,300,6.0,9.0,78,0.00,,---,0.00,VWS V14.00,2013-02-17 22:37:00,
2013-02-17 17:45:00,14.1,7.9,30.26,NW,308,7.0,15.0,76,0.00,,---,0.00,VWS V14.00,2013-02-17 22:45:00,
2013-02-17 17:53:00,14.1,7.7,30.26,WNW,298,8.0,15.0,75,0.00,,---,0.00,VWS V14.00,2013-02-17 22:53:00,
2013-02-17 18:00:00,14.1,8.2,30.27,WNW,292,5.0,15.0,77,0.00,,---,0.00,VWS V14.00,2013-02-17 23:00:00,
2013-02-17 18:09:00,14.0,9.0,30.27,NW,312,7.0,13.0,80,0.00,,---,0.00,VWS V14.00,2013-02-17 23:09:00,
2013-02-17 18:17:00,13.9,9.2,30.27,WNW,302,6.0,13.0,81,0.00,,---,0.00,VWS V14.00,2013-02-17 23:17:00,
2013-02-17 18:25:00,14.0,9.5,30.28,WNW,303,3.0,13.0,82,0.00,,---,0.00,VWS V14.00,2013-02-17 23:25:00,
2013-02-17 18:30:00,14.0,9.5,30.28,NW,305,5.0,13.0,82,0.00,,---,0.00,VWS V14.00,2013-02-17 23:30:00,
2013-02-17 18:41:00,14.0,10.1,30.28,NW,306,11.0,13.0,84,0.00,,---,0.00,VWS V14.00,2013-02-17 23:41:00,
2013-02-17 18:49:00,13.9,10.2,30.28,WNW,284,4.0,13.0,85,0.00,,---,0.00,VWS V14.00,2013-02-17 23:49:00,
2013-02-17 18:57:00,13.9,10.5,30.28,NW,306,3.0,13.0,86,0.00,,---,0.00,VWS V14.00,2013-02-17 23:57:00,
2013-02-17 19:05:00,13.8,10.4,30.29,NNW,337,2.0,7.0,86,0.00,,---,0.00,VWS V14.00,2013-02-18 00:05:00,
2013-02-17 19:13:00,13.8,10.6,30.29,WNW,302,4.0,7.0,87,0.00,,---,0.00,VWS V14.00,2013-02-18 00:13:00,
2013-02-17 19:21:00,13.9,10.8,30.29,WNW,302,5.0,7.0,87,0.00,,---,0.00,VWS V14.00,2013-02-18 00:21:00,
2013-02-17 19:29:00,14.0,10.9,30.30,WNW,302,5.0,7.0,87,0.00,,---,0.00,VWS V14.00,2013-02-18 00:29:00,
2013-02-17 19:37:00,14.0,10.9,30.30,WNW,302,4.0,6.0,87,0.00,,---,0.00,VWS V14.00,2013-02-18 00:37:00,
2013-02-17 19:45:00,14.0,10.9,30.30,NW,309,1.0,8.0,87,0.00,,---,0.00,VWS V14.00,2013-02-18 00:45:00,
2013-02-17 19:53:00,13.9,10.8,30.30,WNW,301,3.0,8.0,87,0.00,,---,0.00,VWS V14.00,2013-02-18 00:53:00,
2013-02-17 20:00:00,13.9,10.5,30.30,WNW,300,2.0,8.0,86,0.00,,---,0.00,VWS V14.00,2013-02-18 01:00:00,
2013-02-17 20:09:00,13.8,10.4,30.31,WNW,300,2.0,5.0,86,0.00,,---,0.00,VWS V14.00,2013-02-18 01:09:00,
2013-02-17 20:17:00,13.9,10.5,30.31,NW,305,7.0,7.0,86,0.00,,---,0.00,VWS V14.00,2013-02-18 01:17:00,
2013-02-17 20:25:00,14.0,10.1,30.31,NW,319,4.0,9.0,84,0.00,,---,0.00,VWS V14.00,2013-02-18 01:25:00,
2013-02-17 20:30:00,14.0,9.8,30.31,NW,310,7.0,9.0,83,0.00,,---,0.00,VWS V14.00,2013-02-18 01:30:00,
2013-02-17 20:41:00,14.2,9.4,30.32,NW,310,2.0,8.0,81,0.00,,---,0.00,VWS V14.00,2013-02-18 01:41:00,
2013-02-17 20:49:00,14.4,9.6,30.32,NW,317,5.0,9.0,81,0.00,,---,0.00,VWS V14.00,2013-02-18 01:49:00,
2013-02-17 20:57:00,14.5,10.0,30.32,NE,40,4.0,9.0,82,0.00,,---,0.00,VWS V14.00,2013-02-18 01:57:00,
2013-02-17 21:05:00,14.6,10.1,30.33,NW,315,4.0,8.0,82,0.00,,---,0.00,VWS V14.00,2013-02-18 02:05:00,
2013-02-17 21:13:00,14.5,10.3,30.33,WNW,290,7.0,9.0,83,0.00,,---,0.00,VWS V14.00,2013-02-18 02:13:00,
2013-02-17 21:21:00,14.6,10.4,30.33,WNW,302,0.0,9.0,83,0.00,,---,0.00,VWS V14.00,2013-02-18 02:21:00,
2013-02-17 21:29:00,14.6,10.4,30.34,NW,310,5.0,9.0,83,0.00,,---,0.00,VWS V14.00,2013-02-18 02:29:00,
2013-02-17 21:37:00,14.7,10.2,30.34,NW,325,3.0,8.0,82,0.00,,---,0.00,VWS V14.00,2013-02-18 02:37:00,
2013-02-17 21:45:00,14.8,10.0,30.34,NW,316,6.0,9.0,81,0.00,,---,0.00,VWS V14.00,2013-02-18 02:45:00,
2013-02-17 21:53:00,14.9,9.6,30.35,NW,320,5.0,9.0,79,0.00,,---,0.00,VWS V14.00,2013-02-18 02:53:00,
2013-02-17 22:00:00,14.9,9.3,30.35,NW,309,2.0,9.0,78,0.00,,---,0.00,VWS V14.00,2013-02-18 03:00:00,
2013-02-17 22:09:00,14.9,9.0,30.35,NW,312,4.0,9.0,77,0.00,,---,0.00,VWS V14.00,2013-02-18 03:09:00,
2013-02-17 22:17:00,15.0,9.1,30.35,NW,323,0.0,9.0,77,0.00,,---,0.00,VWS V14.00,2013-02-18 03:17:00,
2013-02-17 22:25:00,15.0,9.4,30.36,NE,35,3.0,9.0,78,0.00,,---,0.00,VWS V14.00,2013-02-18 03:25:00,
2013-02-17 22:33:00,14.7,9.9,30.36,NW,323,8.0,8.0,81,0.00,,---,0.00,VWS V14.00,2013-02-18 03:33:00,
2013-02-17 22:41:00,14.5,10.3,30.36,NW,312,4.0,8.0,83,0.00,,---,0.00,VWS V14.00,2013-02-18 03:41:00,
2013-02-17 22:49:00,14.4,10.5,30.37,NNW,340,3.0,8.0,84,0.00,,---,0.00,VWS V14.00,2013-02-18 03:49:00,
2013-02-17 22:57:00,14.3,10.9,30.37,North,5,2.0,8.0,86,0.00,,---,0.00,VWS V14.00,2013-02-18 03:57:00,
2013-02-17 23:05:00,14.2,10.8,30.37,NNW,339,0.0,5.0,86,0.00,,---,0.00,VWS V14.00,2013-02-18 04:05:00,
2013-02-17 23:13:00,14.1,10.7,30.37,NW,317,0.0,5.0,86,0.00,,---,0.00,VWS V14.00,2013-02-18 04:13:00,
2013-02-17 23:21:00,14.0,10.3,30.38,NW,314,2.0,5.0,85,0.00,,---,0.00,VWS V14.00,2013-02-18 04:21:00,
2013-02-17 23:29:00,13.9,10.2,30.38,NW,313,3.0,5.0,85,0.00,,---,0.00,VWS V14.00,2013-02-18 04:29:00,
2013-02-17 23:37:00,13.9,10.2,30.38,NW,309,4.0,5.0,85,0.00,,---,0.00,VWS V14.00,2013-02-18 04:37:00,
2013-02-17 23:46:00,13.9,10.0,30.38,NW,309,1.0,5.0,84,0.00,,---,0.00,VWS V14.00,2013-02-18 04:46:00,
2013-02-17 23:54:00,13.7,9.8,30.37,NW,309,0.0,5.0,84,0.00,,---,0.00,VWS V14.00,2013-02-18 04:54:00,